sensor_id;sensor_type;location;lat;lon;timestamp;temperature;humidity
13198;DHT22;6664;52.514;13.440;2022-10-26T00:01:11;9.80;98.80
13198;DHT22;6664;52.514;13.440;2022-10-26T00:03:59;9.90;99.10
13198;DHT22;6664;52.514;13.440;2022-10-26T00:06:45;9.90;99.10
13198;DHT22;6664;52.514;13.440;2022-10-26T00:09:32;9.90;99.00
13198;DHT22;6664;52.514;13.440;2022-10-26T00:12:17;9.90;98.60
13198;DHT22;6664;52.514;13.440;2022-10-26T00:15:08;9.70;98.30
13198;DHT22;6664;52.514;13.440;2022-10-26T00:17:56;9.60;98.50
13198;DHT22;6664;52.514;13.440;2022-10-26T00:20:42;9.70;98.90
13198;DHT22;6664;52.514;13.440;2022-10-26T00:23:28;9.80;99.00
13198;DHT22;6664;52.514;13.440;2022-10-26T00:26:14;9.70;98.90
13198;DHT22;6664;52.514;13.440;2022-10-26T00:28:59;9.70;98.90
13198;DHT22;6664;52.514;13.440;2022-10-26T00:31:47;9.70;99.10
13198;DHT22;6664;52.514;13.440;2022-10-26T00:34:32;9.70;99.50
13198;DHT22;6664;52.514;13.440;2022-10-26T00:37:18;9.80;99.40
13198;DHT22;6664;52.514;13.440;2022-10-26T00:40:03;9.70;99.40
13198;DHT22;6664;52.514;13.440;2022-10-26T00:42:49;9.80;99.90
13198;DHT22;6664;52.514;13.440;2022-10-26T00:45:37;9.80;99.50
13198;DHT22;6664;52.514;13.440;2022-10-26T00:48:34;9.60;99.10
13198;DHT22;6664;52.514;13.440;2022-10-26T00:51:32;9.40;99.00
13198;DHT22;6664;52.514;13.440;2022-10-26T00:54:19;9.30;98.90
13198;DHT22;6664;52.514;13.440;2022-10-26T00:57:05;9.20;98.90
13198;DHT22;6664;52.514;13.440;2022-10-26T00:59:51;9.10;98.90
13198;DHT22;6664;52.514;13.440;2022-10-26T01:02:39;9.20;99.10
13198;DHT22;6664;52.514;13.440;2022-10-26T01:05:29;9.10;99.00
13198;DHT22;6664;52.514;13.440;2022-10-26T01:08:16;9.00;99.10
13198;DHT22;6664;52.514;13.440;2022-10-26T01:11:02;8.90;99.10
13198;DHT22;6664;52.514;13.440;2022-10-26T01:13:50;9.00;99.20
13198;DHT22;6664;52.514;13.440;2022-10-26T01:29:33;8.70;99.60
13198;DHT22;6664;52.514;13.440;2022-10-26T01:32:03;8.80;99.70
13198;DHT22;6664;52.514;13.440;2022-10-26T01:34:59;8.60;99.60
13198;DHT22;6664;52.514;13.440;2022-10-26T01:38:21;8.60;99.70
13198;DHT22;6664;52.514;13.440;2022-10-26T01:44:06;8.60;99.90
13198;DHT22;6664;52.514;13.440;2022-10-26T01:46:54;8.50;99.90
13198;DHT22;6664;52.514;13.440;2022-10-26T01:49:55;8.50;99.90
13198;DHT22;6664;52.514;13.440;2022-10-26T01:52:42;8.50;99.90
13198;DHT22;6664;52.514;13.440;2022-10-26T02:08:05;8.40;99.90
13198;DHT22;6664;52.514;13.440;2022-10-26T02:11:30;8.40;99.90
13198;DHT22;6664;52.514;13.440;2022-10-26T02:15:35;8.40;99.90
13198;DHT22;6664;52.514;13.440;2022-10-26T02:18:12;8.30;99.90
13198;DHT22;6664;52.514;13.440;2022-10-26T02:21:04;8.40;99.90
13198;DHT22;6664;52.514;13.440;2022-10-26T02:23:51;8.30;99.90
13198;DHT22;6664;52.514;13.440;2022-10-26T02:26:41;8.30;99.90
13198;DHT22;6664;52.514;13.440;2022-10-26T02:29:30;8.30;99.90
13198;DHT22;6664;52.514;13.440;2022-10-26T02:32:18;8.30;99.90
13198;DHT22;6664;52.514;13.440;2022-10-26T02:35:05;8.20;99.90
13198;DHT22;6664;52.514;13.440;2022-10-26T02:37:52;8.30;99.90
13198;DHT22;6664;52.514;13.440;2022-10-26T02:40:38;8.30;99.90
13198;DHT22;6664;52.514;13.440;2022-10-26T02:43:24;8.10;99.90
13198;DHT22;6664;52.514;13.440;2022-10-26T02:46:14;8.20;99.90
13198;DHT22;6664;52.514;13.440;2022-10-26T02:49:01;8.20;99.90
13198;DHT22;6664;52.514;13.440;2022-10-26T02:52:17;8.10;99.90
13198;DHT22;6664;52.514;13.440;2022-10-26T02:55:33;8.20;99.90
13198;DHT22;6664;52.514;13.440;2022-10-26T02:58:32;8.20;99.90
13198;DHT22;6664;52.514;13.440;2022-10-26T03:01:19;8.10;99.90
13198;DHT22;6664;52.514;13.440;2022-10-26T03:04:08;8.20;99.90
13198;DHT22;6664;52.514;13.440;2022-10-26T03:06:56;8.20;99.90
13198;DHT22;6664;52.514;13.440;2022-10-26T03:09:44;8.10;99.90
13198;DHT22;6664;52.514;13.440;2022-10-26T03:12:30;8.10;99.90
13198;DHT22;6664;52.514;13.440;2022-10-26T03:15:15;8.10;99.90
13198;DHT22;6664;52.514;13.440;2022-10-26T03:18:01;8.00;99.90
13198;DHT22;6664;52.514;13.440;2022-10-26T03:20:46;8.10;99.90
13198;DHT22;6664;52.514;13.440;2022-10-26T03:23:32;8.10;99.90
13198;DHT22;6664;52.514;13.440;2022-10-26T03:26:17;8.10;99.90
13198;DHT22;6664;52.514;13.440;2022-10-26T03:29:03;8.00;99.90
13198;DHT22;6664;52.514;13.440;2022-10-26T03:31:49;8.10;99.90
13198;DHT22;6664;52.514;13.440;2022-10-26T03:34:38;8.00;99.90
13198;DHT22;6664;52.514;13.440;2022-10-26T03:37:26;8.10;99.90
13198;DHT22;6664;52.514;13.440;2022-10-26T03:40:12;8.00;99.90
13198;DHT22;6664;52.514;13.440;2022-10-26T03:42:57;8.10;99.90
13198;DHT22;6664;52.514;13.440;2022-10-26T03:45:45;8.00;99.90
13198;DHT22;6664;52.514;13.440;2022-10-26T03:48:30;8.00;99.90
13198;DHT22;6664;52.514;13.440;2022-10-26T03:51:16;8.10;99.90
13198;DHT22;6664;52.514;13.440;2022-10-26T03:54:03;8.00;99.90
13198;DHT22;6664;52.514;13.440;2022-10-26T03:56:50;8.00;99.90
13198;DHT22;6664;52.514;13.440;2022-10-26T03:59:39;8.00;99.90
13198;DHT22;6664;52.514;13.440;2022-10-26T04:02:25;8.00;99.90
13198;DHT22;6664;52.514;13.440;2022-10-26T04:05:11;8.00;99.90
13198;DHT22;6664;52.514;13.440;2022-10-26T04:08:01;8.00;99.90
13198;DHT22;6664;52.514;13.440;2022-10-26T04:10:47;8.00;99.90
13198;DHT22;6664;52.514;13.440;2022-10-26T04:13:37;7.90;99.90
13198;DHT22;6664;52.514;13.440;2022-10-26T04:16:23;7.90;99.90
13198;DHT22;6664;52.514;13.440;2022-10-26T04:19:12;8.00;99.90
13198;DHT22;6664;52.514;13.440;2022-10-26T04:21:59;8.00;99.90
13198;DHT22;6664;52.514;13.440;2022-10-26T04:24:47;7.90;99.90
13198;DHT22;6664;52.514;13.440;2022-10-26T04:27:37;7.90;99.90
13198;DHT22;6664;52.514;13.440;2022-10-26T04:30:25;7.90;99.90
13198;DHT22;6664;52.514;13.440;2022-10-26T04:33:10;7.90;99.90
13198;DHT22;6664;52.514;13.440;2022-10-26T04:35:59;7.90;99.90
13198;DHT22;6664;52.514;13.440;2022-10-26T04:38:47;7.80;99.90
13198;DHT22;6664;52.514;13.440;2022-10-26T04:41:33;7.90;99.90
13198;DHT22;6664;52.514;13.440;2022-10-26T04:44:19;7.90;99.90
13198;DHT22;6664;52.514;13.440;2022-10-26T04:47:06;7.80;99.90
13198;DHT22;6664;52.514;13.440;2022-10-26T04:49:52;7.90;99.90
13198;DHT22;6664;52.514;13.440;2022-10-26T04:52:40;7.80;99.90
13198;DHT22;6664;52.514;13.440;2022-10-26T04:55:25;7.80;99.90
13198;DHT22;6664;52.514;13.440;2022-10-26T04:58:11;7.80;99.90
13198;DHT22;6664;52.514;13.440;2022-10-26T05:00:56;7.90;99.90
13198;DHT22;6664;52.514;13.440;2022-10-26T05:03:42;7.90;99.90
13198;DHT22;6664;52.514;13.440;2022-10-26T05:06:27;7.90;99.90
13198;DHT22;6664;52.514;13.440;2022-10-26T05:09:14;7.80;99.90
13198;DHT22;6664;52.514;13.440;2022-10-26T05:11:59;7.80;99.90
13198;DHT22;6664;52.514;13.440;2022-10-26T05:14:47;7.90;99.90
13198;DHT22;6664;52.514;13.440;2022-10-26T05:17:32;7.80;99.90
13198;DHT22;6664;52.514;13.440;2022-10-26T05:20:20;7.90;99.90
13198;DHT22;6664;52.514;13.440;2022-10-26T05:23:13;7.90;99.90
13198;DHT22;6664;52.514;13.440;2022-10-26T05:26:02;7.90;99.90
13198;DHT22;6664;52.514;13.440;2022-10-26T05:28:50;7.80;99.90
13198;DHT22;6664;52.514;13.440;2022-10-26T05:31:38;7.80;99.90
13198;DHT22;6664;52.514;13.440;2022-10-26T05:34:23;7.80;99.90
13198;DHT22;6664;52.514;13.440;2022-10-26T05:37:09;7.80;99.90
13198;DHT22;6664;52.514;13.440;2022-10-26T05:39:54;7.80;99.90
13198;DHT22;6664;52.514;13.440;2022-10-26T05:42:40;7.80;99.90
13198;DHT22;6664;52.514;13.440;2022-10-26T05:45:25;7.70;99.90
13198;DHT22;6664;52.514;13.440;2022-10-26T05:48:11;7.80;99.90
13198;DHT22;6664;52.514;13.440;2022-10-26T05:51:00;7.70;99.90
13198;DHT22;6664;52.514;13.440;2022-10-26T05:53:46;7.80;99.90
13198;DHT22;6664;52.514;13.440;2022-10-26T05:56:37;7.70;99.90
13198;DHT22;6664;52.514;13.440;2022-10-26T05:59:25;7.80;99.90
13198;DHT22;6664;52.514;13.440;2022-10-26T06:05:20;7.90;99.90
13198;DHT22;6664;52.514;13.440;2022-10-26T06:08:11;7.70;99.90
13198;DHT22;6664;52.514;13.440;2022-10-26T06:10:57;7.70;99.90
13198;DHT22;6664;52.514;13.440;2022-10-26T06:13:44;7.90;99.90
13198;DHT22;6664;52.514;13.440;2022-10-26T06:16:49;7.80;99.90
13198;DHT22;6664;52.514;13.440;2022-10-26T06:26:41;8.00;99.90
13198;DHT22;6664;52.514;13.440;2022-10-26T06:32:24;8.10;99.90
13198;DHT22;6664;52.514;13.440;2022-10-26T06:38:26;8.10;99.90
13198;DHT22;6664;52.514;13.440;2022-10-26T06:41:12;8.20;99.90
13198;DHT22;6664;52.514;13.440;2022-10-26T06:44:00;8.20;99.90
13198;DHT22;6664;52.514;13.440;2022-10-26T06:49:41;8.10;99.90
13198;DHT22;6664;52.514;13.440;2022-10-26T06:53:02;8.10;99.90
13198;DHT22;6664;52.514;13.440;2022-10-26T06:55:50;8.10;99.90
13198;DHT22;6664;52.514;13.440;2022-10-26T06:58:37;8.10;99.90
13198;DHT22;6664;52.514;13.440;2022-10-26T07:01:26;8.20;99.90
13198;DHT22;6664;52.514;13.440;2022-10-26T07:04:15;8.30;99.90
13198;DHT22;6664;52.514;13.440;2022-10-26T07:07:00;8.20;99.90
13198;DHT22;6664;52.514;13.440;2022-10-26T07:09:48;8.30;99.90
13198;DHT22;6664;52.514;13.440;2022-10-26T07:12:36;8.40;99.90
13198;DHT22;6664;52.514;13.440;2022-10-26T07:15:21;8.30;99.90
13198;DHT22;6664;52.514;13.440;2022-10-26T07:18:08;8.40;99.90
13198;DHT22;6664;52.514;13.440;2022-10-26T07:20:53;8.40;99.90
13198;DHT22;6664;52.514;13.440;2022-10-26T07:23:39;8.30;99.90
13198;DHT22;6664;52.514;13.440;2022-10-26T07:26:24;8.40;99.90
13198;DHT22;6664;52.514;13.440;2022-10-26T07:29:11;8.50;99.90
13198;DHT22;6664;52.514;13.440;2022-10-26T07:31:58;8.50;99.90
13198;DHT22;6664;52.514;13.440;2022-10-26T07:34:43;8.50;99.90
13198;DHT22;6664;52.514;13.440;2022-10-26T07:37:31;8.60;99.90
13198;DHT22;6664;52.514;13.440;2022-10-26T07:40:16;8.60;99.90
13198;DHT22;6664;52.514;13.440;2022-10-26T07:43:03;8.70;99.90
13198;DHT22;6664;52.514;13.440;2022-10-26T07:45:51;8.70;99.90
13198;DHT22;6664;52.514;13.440;2022-10-26T07:48:37;8.70;99.90
13198;DHT22;6664;52.514;13.440;2022-10-26T07:51:23;8.80;99.90
13198;DHT22;6664;52.514;13.440;2022-10-26T07:54:09;8.80;99.90
13198;DHT22;6664;52.514;13.440;2022-10-26T07:56:55;8.90;99.90
13198;DHT22;6664;52.514;13.440;2022-10-26T07:59:43;8.80;99.90
13198;DHT22;6664;52.514;13.440;2022-10-26T08:02:34;8.90;99.90
13198;DHT22;6664;52.514;13.440;2022-10-26T08:05:22;8.80;99.90
13198;DHT22;6664;52.514;13.440;2022-10-26T08:08:08;8.80;99.90
13198;DHT22;6664;52.514;13.440;2022-10-26T08:10:53;9.00;99.90
13198;DHT22;6664;52.514;13.440;2022-10-26T08:13:39;9.10;99.90
13198;DHT22;6664;52.514;13.440;2022-10-26T08:16:25;9.00;99.90
13198;DHT22;6664;52.514;13.440;2022-10-26T08:19:10;9.00;99.90
13198;DHT22;6664;52.514;13.440;2022-10-26T08:21:56;9.00;99.90
13198;DHT22;6664;52.514;13.440;2022-10-26T08:24:41;9.00;99.90
13198;DHT22;6664;52.514;13.440;2022-10-26T08:27:34;9.10;99.90
13198;DHT22;6664;52.514;13.440;2022-10-26T08:30:19;9.20;99.90
13198;DHT22;6664;52.514;13.440;2022-10-26T08:33:07;9.20;99.90
13198;DHT22;6664;52.514;13.440;2022-10-26T08:35:55;9.20;99.90
13198;DHT22;6664;52.514;13.440;2022-10-26T08:38:41;9.30;99.90
13198;DHT22;6664;52.514;13.440;2022-10-26T08:41:44;9.40;99.90
13198;DHT22;6664;52.514;13.440;2022-10-26T08:44:41;9.40;99.90
13198;DHT22;6664;52.514;13.440;2022-10-26T08:47:39;9.50;99.90
13198;DHT22;6664;52.514;13.440;2022-10-26T08:50:31;9.60;99.90
13198;DHT22;6664;52.514;13.440;2022-10-26T08:56:39;9.50;99.90
13198;DHT22;6664;52.514;13.440;2022-10-26T08:59:51;9.60;99.90
13198;DHT22;6664;52.514;13.440;2022-10-26T09:02:38;9.70;99.90
13198;DHT22;6664;52.514;13.440;2022-10-26T09:05:35;9.80;99.90
13198;DHT22;6664;52.514;13.440;2022-10-26T09:08:45;9.80;99.90
13198;DHT22;6664;52.514;13.440;2022-10-26T09:18:39;10.10;99.90
13198;DHT22;6664;52.514;13.440;2022-10-26T09:22:21;10.20;99.90
13198;DHT22;6664;52.514;13.440;2022-10-26T09:25:17;10.30;99.90
13198;DHT22;6664;52.514;13.440;2022-10-26T09:28:03;10.30;99.90
13198;DHT22;6664;52.514;13.440;2022-10-26T09:30:56;10.40;99.90
13198;DHT22;6664;52.514;13.440;2022-10-26T09:33:42;10.60;99.90
13198;DHT22;6664;52.514;13.440;2022-10-26T09:36:27;10.60;99.90
13198;DHT22;6664;52.514;13.440;2022-10-26T09:39:39;10.60;99.90
13198;DHT22;6664;52.514;13.440;2022-10-26T09:42:42;10.80;99.90
13198;DHT22;6664;52.514;13.440;2022-10-26T09:46:04;10.90;99.90
13198;DHT22;6664;52.514;13.440;2022-10-26T09:48:50;11.00;99.90
13198;DHT22;6664;52.514;13.440;2022-10-26T09:51:38;11.20;99.90
13198;DHT22;6664;52.514;13.440;2022-10-26T09:54:26;11.20;99.90
13198;DHT22;6664;52.514;13.440;2022-10-26T09:57:17;11.40;99.90
13198;DHT22;6664;52.514;13.440;2022-10-26T10:00:04;11.40;99.90
13198;DHT22;6664;52.514;13.440;2022-10-26T10:02:55;11.60;99.90
13198;DHT22;6664;52.514;13.440;2022-10-26T10:05:41;11.80;99.90
13198;DHT22;6664;52.514;13.440;2022-10-26T10:08:42;11.80;99.90
13198;DHT22;6664;52.514;13.440;2022-10-26T10:11:40;11.80;99.90
13198;DHT22;6664;52.514;13.440;2022-10-26T10:14:31;12.10;99.20
13198;DHT22;6664;52.514;13.440;2022-10-26T10:17:23;12.30;97.80
13198;DHT22;6664;52.514;13.440;2022-10-26T10:20:21;12.30;96.50
13198;DHT22;6664;52.514;13.440;2022-10-26T10:23:27;12.50;95.80
13198;DHT22;6664;52.514;13.440;2022-10-26T10:26:15;12.50;95.10
13198;DHT22;6664;52.514;13.440;2022-10-26T10:29:01;12.70;94.30
13198;DHT22;6664;52.514;13.440;2022-10-26T10:31:55;12.80;93.70
13198;DHT22;6664;52.514;13.440;2022-10-26T10:34:41;12.90;93.00
13198;DHT22;6664;52.514;13.440;2022-10-26T10:37:38;13.10;92.40
13198;DHT22;6664;52.514;13.440;2022-10-26T10:40:29;13.20;92.20
13198;DHT22;6664;52.514;13.440;2022-10-26T10:43:16;13.30;91.50
13198;DHT22;6664;52.514;13.440;2022-10-26T10:46:01;13.40;91.10
13198;DHT22;6664;52.514;13.440;2022-10-26T10:49:01;13.50;90.50
13198;DHT22;6664;52.514;13.440;2022-10-26T10:51:50;13.80;90.10
13198;DHT22;6664;52.514;13.440;2022-10-26T10:54:38;13.90;89.50
13198;DHT22;6664;52.514;13.440;2022-10-26T10:57:35;14.00;87.50
13198;DHT22;6664;52.514;13.440;2022-10-26T11:00:24;14.00;86.10
13198;DHT22;6664;52.514;13.440;2022-10-26T11:03:36;14.30;82.40
13198;DHT22;6664;52.514;13.440;2022-10-26T11:06:28;14.30;81.80
13198;DHT22;6664;52.514;13.440;2022-10-26T11:09:19;14.30;80.80
13198;DHT22;6664;52.514;13.440;2022-10-26T11:12:12;14.40;80.30
13198;DHT22;6664;52.514;13.440;2022-10-26T11:15:04;14.40;79.00
13198;DHT22;6664;52.514;13.440;2022-10-26T11:18:18;14.50;78.70
13198;DHT22;6664;52.514;13.440;2022-10-26T11:21:30;14.50;77.80
13198;DHT22;6664;52.514;13.440;2022-10-26T11:24:42;14.60;76.50
13198;DHT22;6664;52.514;13.440;2022-10-26T11:30:19;14.80;74.90
13198;DHT22;6664;52.514;13.440;2022-10-26T11:33:16;14.80;75.10
13198;DHT22;6664;52.514;13.440;2022-10-26T11:36:08;14.90;74.30
13198;DHT22;6664;52.514;13.440;2022-10-26T11:39:18;15.00;73.20
13198;DHT22;6664;52.514;13.440;2022-10-26T11:45:29;15.10;72.40
13198;DHT22;6664;52.514;13.440;2022-10-26T11:48:23;15.10;72.80
13198;DHT22;6664;52.514;13.440;2022-10-26T11:54:22;15.20;70.50
13198;DHT22;6664;52.514;13.440;2022-10-26T11:57:09;15.30;70.60
13198;DHT22;6664;52.514;13.440;2022-10-26T12:00:13;15.30;69.90
13198;DHT22;6664;52.514;13.440;2022-10-26T12:03:16;15.30;70.00
13198;DHT22;6664;52.514;13.440;2022-10-26T12:06:03;15.40;70.00
13198;DHT22;6664;52.514;13.440;2022-10-26T12:09:07;15.40;69.50
13198;DHT22;6664;52.514;13.440;2022-10-26T12:18:14;15.50;67.70
13198;DHT22;6664;52.514;13.440;2022-10-26T12:21:16;15.60;67.30
13198;DHT22;6664;52.514;13.440;2022-10-26T12:33:27;15.80;66.20
13198;DHT22;6664;52.514;13.440;2022-10-26T12:45:19;19.20;59.10
13198;DHT22;6664;52.514;13.440;2022-10-26T12:48:23;26.60;42.00
13198;DHT22;6664;52.514;13.440;2022-10-26T12:54:38;32.90;21.30
13198;DHT22;6664;52.514;13.440;2022-10-26T13:00:25;27.90;22.10
13198;DHT22;6664;52.514;13.440;2022-10-26T13:06:34;26.80;24.80
13198;DHT22;6664;52.514;13.440;2022-10-26T13:09:27;29.20;22.30
13198;DHT22;6664;52.514;13.440;2022-10-26T13:12:13;27.00;24.20
13198;DHT22;6664;52.514;13.440;2022-10-26T13:18:17;29.00;21.70
13198;DHT22;6664;52.514;13.440;2022-10-26T13:21:12;25.90;25.30
13198;DHT22;6664;52.514;13.440;2022-10-26T13:24:01;25.50;28.00
13198;DHT22;6664;52.514;13.440;2022-10-26T13:32:52;22.00;33.80
13198;DHT22;6664;52.514;13.440;2022-10-26T13:35:42;20.80;37.20
13198;DHT22;6664;52.514;13.440;2022-10-26T13:38:31;19.80;40.40
13198;DHT22;6664;52.514;13.440;2022-10-26T13:41:36;19.20;43.00
13198;DHT22;6664;52.514;13.440;2022-10-26T13:44:40;18.70;45.10
13198;DHT22;6664;52.514;13.440;2022-10-26T13:47:35;18.20;47.30
13198;DHT22;6664;52.514;13.440;2022-10-26T13:50:28;17.90;48.30
13198;DHT22;6664;52.514;13.440;2022-10-26T13:53:28;17.70;49.70
13198;DHT22;6664;52.514;13.440;2022-10-26T13:56:29;17.50;51.20
13198;DHT22;6664;52.514;13.440;2022-10-26T13:59:16;17.30;52.70
13198;DHT22;6664;52.514;13.440;2022-10-26T14:05:02;17.00;54.00
13198;DHT22;6664;52.514;13.440;2022-10-26T14:07:57;16.90;54.70
13198;DHT22;6664;52.514;13.440;2022-10-26T14:10:47;16.80;55.20
13198;DHT22;6664;52.514;13.440;2022-10-26T14:13:38;16.70;56.20
13198;DHT22;6664;52.514;13.440;2022-10-26T14:16:30;16.70;56.90
13198;DHT22;6664;52.514;13.440;2022-10-26T14:22:19;16.50;57.40
13198;DHT22;6664;52.514;13.440;2022-10-26T14:25:24;16.40;58.00
13198;DHT22;6664;52.514;13.440;2022-10-26T14:28:49;16.40;58.10
13198;DHT22;6664;52.514;13.440;2022-10-26T14:31:35;16.30;58.80
13198;DHT22;6664;52.514;13.440;2022-10-26T14:34:23;16.20;59.10
13198;DHT22;6664;52.514;13.440;2022-10-26T14:37:09;16.20;59.60
13198;DHT22;6664;52.514;13.440;2022-10-26T14:39:55;16.10;60.10
13198;DHT22;6664;52.514;13.440;2022-10-26T14:42:42;15.90;60.90
13198;DHT22;6664;52.514;13.440;2022-10-26T14:45:36;15.80;61.60
13198;DHT22;6664;52.514;13.440;2022-10-26T14:48:42;15.80;62.00
13198;DHT22;6664;52.514;13.440;2022-10-26T14:51:34;15.70;62.00
13198;DHT22;6664;52.514;13.440;2022-10-26T14:54:27;15.60;62.60
13198;DHT22;6664;52.514;13.440;2022-10-26T14:57:33;15.50;63.00
13198;DHT22;6664;52.514;13.440;2022-10-26T15:00:23;15.50;63.40
13198;DHT22;6664;52.514;13.440;2022-10-26T15:03:17;15.40;63.50
13198;DHT22;6664;52.514;13.440;2022-10-26T15:12:35;15.40;63.80
13198;DHT22;6664;52.514;13.440;2022-10-26T15:15:25;15.30;64.40
13198;DHT22;6664;52.514;13.440;2022-10-26T15:21:25;15.30;64.80
13198;DHT22;6664;52.514;13.440;2022-10-26T15:24:31;15.30;65.10
13198;DHT22;6664;52.514;13.440;2022-10-26T15:27:23;15.30;65.00
13198;DHT22;6664;52.514;13.440;2022-10-26T15:30:22;15.30;65.20
13198;DHT22;6664;52.514;13.440;2022-10-26T15:33:22;15.20;65.30
13198;DHT22;6664;52.514;13.440;2022-10-26T15:39:01;15.20;65.80
13198;DHT22;6664;52.514;13.440;2022-10-26T15:41:47;15.20;66.10
13198;DHT22;6664;52.514;13.440;2022-10-26T15:44:36;15.10;66.70
13198;DHT22;6664;52.514;13.440;2022-10-26T15:47:28;15.00;66.70
13198;DHT22;6664;52.514;13.440;2022-10-26T15:50:17;14.70;67.30
13198;DHT22;6664;52.514;13.440;2022-10-26T15:53:15;14.60;69.10
13198;DHT22;6664;52.514;13.440;2022-10-26T15:56:04;14.40;69.00
13198;DHT22;6664;52.514;13.440;2022-10-26T15:58:56;14.30;69.80
13198;DHT22;6664;52.514;13.440;2022-10-26T16:01:44;14.10;70.50
13198;DHT22;6664;52.514;13.440;2022-10-26T16:04:32;14.00;71.00
13198;DHT22;6664;52.514;13.440;2022-10-26T16:07:23;13.90;71.80
13198;DHT22;6664;52.514;13.440;2022-10-26T16:10:23;13.80;72.40
13198;DHT22;6664;52.514;13.440;2022-10-26T16:13:13;13.70;73.50
13198;DHT22;6664;52.514;13.440;2022-10-26T16:15:59;13.70;74.30
13198;DHT22;6664;52.514;13.440;2022-10-26T16:18:51;13.60;74.80
13198;DHT22;6664;52.514;13.440;2022-10-26T16:22:00;13.50;75.70
13198;DHT22;6664;52.514;13.440;2022-10-26T16:24:46;13.60;76.00
13198;DHT22;6664;52.514;13.440;2022-10-26T16:27:31;13.60;76.60
13198;DHT22;6664;52.514;13.440;2022-10-26T16:30:18;13.60;77.00
13198;DHT22;6664;52.514;13.440;2022-10-26T16:33:03;13.70;77.30
13198;DHT22;6664;52.514;13.440;2022-10-26T16:35:59;13.70;77.20
13198;DHT22;6664;52.514;13.440;2022-10-26T16:38:45;13.70;77.30
13198;DHT22;6664;52.514;13.440;2022-10-26T16:41:30;13.70;77.20
13198;DHT22;6664;52.514;13.440;2022-10-26T16:44:16;13.80;77.50
13198;DHT22;6664;52.514;13.440;2022-10-26T16:47:01;13.80;77.60
13198;DHT22;6664;52.514;13.440;2022-10-26T16:49:46;13.80;77.70
13198;DHT22;6664;52.514;13.440;2022-10-26T16:52:36;13.80;77.80
13198;DHT22;6664;52.514;13.440;2022-10-26T16:55:23;13.80;78.10
13198;DHT22;6664;52.514;13.440;2022-10-26T16:58:09;13.80;78.20
13198;DHT22;6664;52.514;13.440;2022-10-26T17:00:55;13.80;78.40
13198;DHT22;6664;52.514;13.440;2022-10-26T17:03:40;13.80;78.70
13198;DHT22;6664;52.514;13.440;2022-10-26T17:06:26;13.80;78.80
13198;DHT22;6664;52.514;13.440;2022-10-26T17:09:11;13.90;78.70
13198;DHT22;6664;52.514;13.440;2022-10-26T17:11:57;13.90;78.90
13198;DHT22;6664;52.514;13.440;2022-10-26T17:14:48;14.00;78.70
13198;DHT22;6664;52.514;13.440;2022-10-26T17:17:36;14.00;78.50
13198;DHT22;6664;52.514;13.440;2022-10-26T17:20:22;14.10;78.40
13198;DHT22;6664;52.514;13.440;2022-10-26T17:23:09;14.10;78.40
13198;DHT22;6664;52.514;13.440;2022-10-26T17:26:00;14.20;78.30
13198;DHT22;6664;52.514;13.440;2022-10-26T17:28:50;14.20;78.20
13198;DHT22;6664;52.514;13.440;2022-10-26T17:31:36;14.20;78.00
13198;DHT22;6664;52.514;13.440;2022-10-26T17:34:23;14.30;77.70
13198;DHT22;6664;52.514;13.440;2022-10-26T17:37:09;14.30;77.80
13198;DHT22;6664;52.514;13.440;2022-10-26T17:39:54;14.20;77.80
13198;DHT22;6664;52.514;13.440;2022-10-26T17:42:40;14.20;78.00
13198;DHT22;6664;52.514;13.440;2022-10-26T17:45:26;14.20;78.30
13198;DHT22;6664;52.514;13.440;2022-10-26T17:48:11;14.20;78.20
13198;DHT22;6664;52.514;13.440;2022-10-26T17:51:02;14.20;78.00
13198;DHT22;6664;52.514;13.440;2022-10-26T17:53:50;14.20;78.00
13198;DHT22;6664;52.514;13.440;2022-10-26T17:56:36;14.20;78.10
13198;DHT22;6664;52.514;13.440;2022-10-26T17:59:31;14.20;78.10
13198;DHT22;6664;52.514;13.440;2022-10-26T18:02:16;14.20;78.10
13198;DHT22;6664;52.514;13.440;2022-10-26T18:05:05;14.20;78.10
13198;DHT22;6664;52.514;13.440;2022-10-26T18:07:52;14.30;78.10
13198;DHT22;6664;52.514;13.440;2022-10-26T18:10:37;14.30;78.00
13198;DHT22;6664;52.514;13.440;2022-10-26T18:13:23;14.30;77.90
13198;DHT22;6664;52.514;13.440;2022-10-26T18:16:18;14.30;78.00
13198;DHT22;6664;52.514;13.440;2022-10-26T18:19:06;14.40;78.10
13198;DHT22;6664;52.514;13.440;2022-10-26T18:21:52;14.40;77.90
13198;DHT22;6664;52.514;13.440;2022-10-26T18:24:37;14.40;77.80
13198;DHT22;6664;52.514;13.440;2022-10-26T18:27:23;14.50;77.70
13198;DHT22;6664;52.514;13.440;2022-10-26T18:30:09;14.50;77.60
13198;DHT22;6664;52.514;13.440;2022-10-26T18:32:57;14.50;77.40
13198;DHT22;6664;52.514;13.440;2022-10-26T18:35:43;14.50;77.30
13198;DHT22;6664;52.514;13.440;2022-10-26T18:38:33;14.50;77.30
13198;DHT22;6664;52.514;13.440;2022-10-26T18:41:20;14.50;77.10
13198;DHT22;6664;52.514;13.440;2022-10-26T18:44:08;14.60;77.00
13198;DHT22;6664;52.514;13.440;2022-10-26T18:46:53;14.60;76.90
13198;DHT22;6664;52.514;13.440;2022-10-26T18:49:40;14.60;76.80
13198;DHT22;6664;52.514;13.440;2022-10-26T18:52:26;14.70;76.90
13198;DHT22;6664;52.514;13.440;2022-10-26T18:55:12;14.70;76.80
13198;DHT22;6664;52.514;13.440;2022-10-26T18:57:57;14.70;76.80
13198;DHT22;6664;52.514;13.440;2022-10-26T19:00:43;14.70;76.10
13198;DHT22;6664;52.514;13.440;2022-10-26T19:03:31;14.70;76.30
13198;DHT22;6664;52.514;13.440;2022-10-26T19:06:25;14.60;76.60
13198;DHT22;6664;52.514;13.440;2022-10-26T19:09:13;14.60;76.80
13198;DHT22;6664;52.514;13.440;2022-10-26T19:12:00;14.50;76.70
13198;DHT22;6664;52.514;13.440;2022-10-26T19:14:48;14.50;76.70
13198;DHT22;6664;52.514;13.440;2022-10-26T19:17:35;14.50;77.10
13198;DHT22;6664;52.514;13.440;2022-10-26T19:20:20;14.50;77.30
13198;DHT22;6664;52.514;13.440;2022-10-26T19:23:06;14.40;77.30
13198;DHT22;6664;52.514;13.440;2022-10-26T19:25:57;14.40;77.40
13198;DHT22;6664;52.514;13.440;2022-10-26T19:28:43;14.20;77.50
13198;DHT22;6664;52.514;13.440;2022-10-26T19:31:29;14.10;77.90
13198;DHT22;6664;52.514;13.440;2022-10-26T19:34:18;13.90;78.30
13198;DHT22;6664;52.514;13.440;2022-10-26T19:37:04;13.80;79.00
13198;DHT22;6664;52.514;13.440;2022-10-26T19:39:50;13.60;79.60
13198;DHT22;6664;52.514;13.440;2022-10-26T19:42:35;13.50;80.20
13198;DHT22;6664;52.514;13.440;2022-10-26T19:45:21;13.30;80.70
13198;DHT22;6664;52.514;13.440;2022-10-26T19:48:09;13.20;81.40
13198;DHT22;6664;52.514;13.440;2022-10-26T19:50:55;13.10;82.30
13198;DHT22;6664;52.514;13.440;2022-10-26T19:53:41;13.00;83.00
13198;DHT22;6664;52.514;13.440;2022-10-26T19:56:27;12.80;83.60
13198;DHT22;6664;52.514;13.440;2022-10-26T19:59:12;12.70;84.60
13198;DHT22;6664;52.514;13.440;2022-10-26T20:01:58;12.60;85.10
13198;DHT22;6664;52.514;13.440;2022-10-26T20:04:45;12.60;85.60
13198;DHT22;6664;52.514;13.440;2022-10-26T20:07:33;12.50;86.50
13198;DHT22;6664;52.514;13.440;2022-10-26T20:10:19;12.40;87.90
13198;DHT22;6664;52.514;13.440;2022-10-26T20:13:06;12.40;88.10